Bath, North Carolina
Current Conditions -  °F | °C
As of 12:15 PM on Thursday 27 Nov 2014 (Local Time) from KOCW Reporting Station
Broken Clouds Broken Clouds  
Wind Chill: 51°   Ceiling: 3200
Heat Index: 51°   Visibility: 10mi
Dew Point: 43°   Wind: 5mph
Humidity: 74%   Direction: 20°NNE
Pressure: 29.98"   Gusts: NA
Location:  35.48°N, 76.81°W
Report Text: KOCW 271715Z AUTO 02004KT 10SM SCT025 BKN032 BKN070 11/06 A2998 RMK AO2 T01070062
Loading
Personal Weather Stations






























Interactive Weather Map New forecast layout! Learn more

10-Day Weather Forecast

Advertisements
Track Severe Weather on mobile